Time;durP1;ratioP1;P1;durP2;ratioP2;P2;SDS_P1;SDS_P2;PMS_P1;PMS_P2;Temp;Humidity;BMP_temperature;BMP_pressure;BME280_temperature;BME280_humidity;BME280_pressure;Samples;Min_cycle;Max_cycle;Signal;HPM_P1;HPM_P2
2024/04/07 00:00:21;;;;;;;2.30;1.25;;;14.60;47.50;;;;;;5057832;28;20373;-81
2024/04/07 00:02:47;;;;;;;0.43;0.40;;;14.60;69.40;;;;;;5057490;28;20029;-81
2024/04/07 00:05:13;;;;;;;1.20;1.05;;;14.60;1.00;;;;;;5054826;28;20056;-81
2024/04/07 00:07:39;;;;;;;0.17;0.17;;;14.70;1.00;;;;;;5052047;28;20029;-81
2024/04/07 00:10:06;;;;;;;0.20;0.20;;;14.80;1.00;;;;;;5052234;28;20021;-82
2024/04/07 00:12:32;;;;;;;0.10;0.10;;;14.80;1.00;;;;;;5050767;28;20021;-81
2024/04/07 00:14:58;;;;;;;0.50;0.50;;;14.80;1.00;;;;;;5059321;28;20032;-81
2024/04/07 00:17:24;;;;;;;0.10;0.10;;;14.70;1.00;;;;;;5055519;28;20025;-80
2024/04/07 00:19:51;;;;;;;5.88;1.75;;;14.80;1.00;;;;;;5060356;28;20044;-80
2024/04/07 00:22:18;;;;;;;0.30;0.30;;;14.70;1.00;;;;;;5057172;28;20464;-81
2024/04/07 00:24:44;;;;;;;0.40;0.40;;;14.70;1.00;;;;;;5054175;28;20025;-80
2024/04/07 00:27:10;;;;;;;0.50;0.40;;;14.70;1.00;;;;;;5058136;28;20351;-80
2024/04/07 00:29:36;;;;;;;0.17;0.17;;;14.70;1.00;;;;;;5051956;28;20025;-80
2024/04/07 00:32:03;;;;;;;0.75;0.50;;;14.70;1.00;;;;;;5052008;28;20393;-80
2024/04/07 00:34:29;;;;;;;0.20;0.20;;;14.60;1.00;;;;;;5065771;28;20032;-80
2024/04/07 00:36:55;;;;;;;0.15;0.15;;;14.50;1.00;;;;;;5056975;28;20438;-81
2024/04/07 00:39:21;;;;;;;6.32;0.57;;;14.40;1.00;;;;;;5054560;28;20485;-81
2024/04/07 00:41:47;;;;;;;2.08;1.88;;;14.30;1.00;;;;;;5056687;28;20037;-81
2024/04/07 00:44:13;;;;;;;1.00;0.90;;;14.20;1.00;;;;;;5066992;28;20044;-81
2024/04/07 00:46:41;;;;;;;0.30;0.30;;;14.00;1.00;;;;;;5051679;28;20032;-81
2024/04/07 00:49:08;;;;;;;0.45;0.45;;;13.90;1.00;;;;;;5051571;28;20021;-82
2024/04/07 00:51:36;;;;;;;1.48;0.68;;;13.80;29.80;;;;;;5049906;28;20044;-81
2024/04/07 00:54:02;;;;;;;0.25;0.25;;;13.70;48.40;;;;;;5049724;28;20033;-81
2024/04/07 00:56:28;;;;;;;0.30;0.30;;;13.60;90.70;;;;;;5057078;28;20369;-81
2024/04/07 00:58:55;;;;;;;0.35;0.35;;;13.40;99.90;;;;;;5061953;28;20024;-81
2024/04/07 01:01:21;;;;;;;0.10;0.10;;;13.30;99.90;;;;;;5053672;28;20048;-81
2024/04/07 01:03:47;;;;;;;0.52;0.50;;;13.20;99.90;;;;;;5056535;28;20039;-80
2024/04/07 01:06:16;;;;;;;0.30;0.30;;;13.20;99.90;;;;;;5053508;28;20484;-82
2024/04/07 01:08:42;;;;;;;0.40;0.40;;;13.20;99.90;;;;;;5057732;28;20437;-80
2024/04/07 01:11:08;;;;;;;0.30;0.30;;;13.20;99.90;;;;;;5051571;28;20025;-81
2024/04/07 01:13:35;;;;;;;0.20;0.20;;;13.20;99.90;;;;;;5041594;28;20064;-80
2024/04/07 01:16:01;;;;;;;0.30;0.30;;;13.30;99.90;;;;;;5055364;28;20024;-81
2024/04/07 01:18:27;;;;;;;1.02;0.38;;;13.40;99.90;;;;;;5058348;28;20049;-81
2024/04/07 01:20:54;;;;;;;7.47;0.50;;;13.40;99.90;;;;;;5057301;28;20025;-81
2024/04/07 01:23:20;;;;;;;7.88;0.45;;;13.50;99.90;;;;;;5051552;28;20378;-81
2024/04/07 01:25:46;;;;;;;0.28;0.28;;;13.60;99.90;;;;;;5053476;28;20044;-81
2024/04/07 01:28:13;;;;;;;0.55;0.55;;;13.60;74.10;;;;;;5055007;28;20040;-82
2024/04/07 01:30:40;;;;;;;0.20;0.20;;;13.70;1.00;;;;;;5049153;28;20033;-81
2024/04/07 01:33:06;;;;;;;0.38;0.38;;;13.70;53.00;;;;;;5050515;28;20044;-81
2024/04/07 01:35:33;;;;;;;0.52;0.40;;;13.70;20.60;;;;;;5057099;28;20025;-81
2024/04/07 01:37:59;;;;;;;0.28;0.28;;;13.70;1.00;;;;;;5064599;28;20043;-81
2024/04/07 01:40:25;;;;;;;0.20;0.20;;;13.80;1.00;;;;;;5063147;28;20028;-81
2024/04/07 01:42:51;;;;;;;0.40;0.40;;;13.70;1.00;;;;;;5074880;28;20056;-81
2024/04/07 01:45:18;;;;;;;0.10;0.10;;;13.80;1.00;;;;;;5049886;28;20040;-81
2024/04/07 01:47:45;;;;;;;0.65;0.65;;;13.80;1.00;;;;;;5052985;28;20033;-81
2024/04/07 01:50:11;;;;;;;1.15;0.90;;;13.70;1.00;;;;;;5053662;28;20029;-82
2024/04/07 01:52:37;;;;;;;0.50;0.50;;;13.70;1.00;;;;;;5055289;28;20033;-81
2024/04/07 01:55:05;;;;;;;0.65;0.65;;;13.60;1.00;;;;;;5057097;28;20044;-80
2024/04/07 01:57:31;;;;;;;0.20;0.20;;;13.50;1.00;;;;;;5062908;28;20036;-80
2024/04/07 01:59:57;;;;;;;0.55;0.40;;;13.50;23.30;;;;;;5061084;28;20016;-80
2024/04/07 02:02:23;;;;;;;0.30;0.30;;;13.40;11.90;;;;;;5061333;28;20051;-80
2024/04/07 02:04:50;;;;;;;0.40;0.38;;;13.30;33.90;;;;;;5055984;28;20041;-81
2024/04/07 02:07:19;;;;;;;0.35;0.35;;;13.10;94.70;;;;;;5052986;28;20037;-81
2024/04/07 02:09:48;;;;;;;1.42;0.73;;;13.00;99.90;;;;;;5053352;28;20374;-80
2024/04/07 02:12:15;;;;;;;0.20;0.20;;;12.90;99.90;;;;;;5052338;28;20033;-82
2024/04/07 02:14:42;;;;;;;1.00;0.60;;;12.90;99.90;;;;;;5063466;28;20036;-80
2024/04/07 02:17:08;;;;;;;0.30;0.30;;;12.80;99.90;;;;;;5052917;28;20036;-82
2024/04/07 02:19:34;;;;;;;0.10;0.10;;;12.90;99.90;;;;;;5056173;28;20041;-80
2024/04/07 02:22:00;;;;;;;0.47;0.40;;;12.80;99.90;;;;;;5047792;28;20060;-80
2024/04/07 02:24:26;;;;;;;0.10;0.10;;;12.70;99.90;;;;;;5054370;28;20373;-80
2024/04/07 02:26:52;;;;;;;0.15;0.15;;;12.80;99.90;;;;;;5054867;28;20029;-81
2024/04/07 02:29:19;;;;;;;0.35;0.35;;;12.80;99.90;;;;;;5050049;28;20482;-81
2024/04/07 02:31:45;;;;;;;0.57;0.57;;;12.80;99.90;;;;;;5054258;28;20366;-80
2024/04/07 02:34:12;;;;;;;0.15;0.15;;;12.90;99.90;;;;;;5054011;28;20040;-82
2024/04/07 02:36:38;;;;;;;0.20;0.20;;;12.80;99.90;;;;;;5064386;28;20047;-81
2024/04/07 02:39:09;;;;;;;3.60;1.42;;;12.80;99.90;;;;;;5058629;28;20028;-81
2024/04/07 02:41:36;;;;;;;0.65;0.65;;;12.80;99.90;;;;;;5053107;28;20515;-81
2024/04/07 02:44:03;;;;;;;1.17;0.63;;;12.80;99.90;;;;;;5055633;28;20029;-80
2024/04/07 02:49:17;;;;;;;0.77;0.32;;;12.80;99.90;;;;;;5051523;28;20032;-81
2024/04/07 02:51:44;;;;;;;0.30;0.30;;;12.70;99.90;;;;;;5052972;28;20033;-79
2024/04/07 02:54:10;;;;;;;0.80;0.50;;;12.70;99.90;;;;;;5053218;28;20040;-80
2024/04/07 02:56:36;;;;;;;0.52;0.52;;;12.60;99.90;;;;;;5059696;28;20020;-79
2024/04/07 02:59:03;;;;;;;0.35;0.35;;;12.70;99.90;;;;;;5062437;28;20048;-80
2024/04/07 03:01:29;;;;;;;3.60;1.00;;;12.70;99.90;;;;;;5056273;28;20033;-80
2024/04/07 03:03:56;;;;;;;0.13;0.13;;;12.80;99.90;;;;;;5052985;28;20038;-80
2024/04/07 03:06:22;;;;;;;0.25;0.25;;;12.80;99.90;;;;;;5053132;28;20036;-81
2024/04/07 03:08:49;;;;;;;0.30;0.30;;;12.80;99.90;;;;;;5057199;28;20036;-80
2024/04/07 03:11:15;;;;;;;0.75;0.75;;;12.90;99.90;;;;;;5051672;28;20032;-80
2024/04/07 03:13:41;;;;;;;0.65;0.65;;;12.90;73.80;;;;;;5056068;28;20028;-80
2024/04/07 03:16:14;;;;;;;0.45;0.45;;;12.90;59.70;;;;;;5065204;28;20020;-80
2024/04/07 03:18:41;;;;;;;0.25;0.25;;;12.90;80.90;;;;;;5057497;28;20049;-79
2024/04/07 03:21:08;;;;;;;0.20;0.20;;;12.90;63.10;;;;;;5053719;28;20041;-80
2024/04/07 03:23:34;;;;;;;0.30;0.30;;;12.80;94.40;;;;;;5057219;28;20045;-80
2024/04/07 03:26:00;;;;;;;0.30;0.30;;;12.80;99.90;;;;;;5050309;28;20044;-80
2024/04/07 03:28:26;;;;;;;0.75;0.75;;;12.70;93.60;;;;;;5050610;28;20033;-80
2024/04/07 03:30:52;;;;;;;0.30;0.30;;;12.60;99.90;;;;;;5051109;28;20037;-79
2024/04/07 03:33:18;;;;;;;0.52;0.50;;;12.60;99.90;;;;;;5054162;28;20037;-80
2024/04/07 03:35:45;;;;;;;0.57;0.57;;;12.50;99.90;;;;;;5053269;28;20047;-79
2024/04/07 03:38:11;;;;;;;0.30;0.30;;;12.50;99.90;;;;;;5052126;28;20055;-80
2024/04/07 03:40:38;;;;;;;0.70;0.57;;;12.50;99.90;;;;;;5055492;28;20029;-80
2024/04/07 03:43:04;;;;;;;0.25;0.25;;;12.40;99.90;;;;;;5054518;28;20362;-80
2024/04/07 03:45:30;;;;;;;0.47;0.47;;;12.40;99.90;;;;;;5052371;28;20044;-80
2024/04/07 03:47:57;;;;;;;0.28;0.28;;;12.40;99.90;;;;;;5049547;28;20441;-81
2024/04/07 03:50:23;;;;;;;0.57;0.57;;;12.40;99.90;;;;;;5048785;28;20029;-80
2024/04/07 03:52:49;;;;;;;0.25;0.25;;;12.40;99.90;;;;;;5051486;28;20028;-80
2024/04/07 03:55:15;;;;;;;0.17;0.17;;;12.40;99.90;;;;;;5065210;28;20442;-82
2024/04/07 03:57:41;;;;;;;0.73;0.73;;;12.40;99.90;;;;;;5036533;28;20042;-80
2024/04/07 04:00:08;;;;;;;6.07;0.77;;;12.40;99.90;;;;;;5046824;28;20033;-80
2024/04/07 04:02:42;;;;;;;0.38;0.35;;;12.30;99.90;;;;;;5058153;28;20025;-79
2024/04/07 04:05:08;;;;;;;0.25;0.25;;;12.30;99.90;;;;;;5056927;28;20331;-80
2024/04/07 04:07:35;;;;;;;6.13;1.10;;;12.30;99.90;;;;;;5052512;28;20048;-80
2024/04/07 04:10:01;;;;;;;0.47;0.47;;;12.30;99.90;;;;;;5045182;28;20470;-81
2024/04/07 04:12:28;;;;;;;0.85;0.65;;;12.30;99.90;;;;;;5047043;28;20033;-81
2024/04/07 04:14:56;;;;;;;2.17;0.63;;;12.30;99.90;;;;;;5061834;28;20036;-80
2024/04/07 04:17:23;;;;;;;0.20;0.20;;;12.30;99.90;;;;;;5058422;28;20075;-81
2024/04/07 04:19:50;;;;;;;0.13;0.13;;;12.30;99.90;;;;;;5054880;28;20045;-81
2024/04/07 04:22:17;;;;;;;0.65;0.52;;;12.30;99.90;;;;;;5052892;28;20043;-82
2024/04/07 04:24:44;;;;;;;0.10;0.10;;;12.30;99.90;;;;;;5053846;28;20030;-80
2024/04/07 04:27:10;;;;;;;0.10;0.10;;;12.20;99.90;;;;;;5052838;28;20041;-81
2024/04/07 04:29:37;;;;;;;0.75;0.75;;;12.10;99.90;;;;;;5057170;28;20029;-80
2024/04/07 04:32:04;;;;;;;0.63;0.63;;;12.10;99.90;;;;;;5044339;28;20040;-80
2024/04/07 04:34:34;;;;;;;0.52;0.52;;;12.20;99.90;;;;;;5077854;28;20587;-81
2024/04/07 04:37:01;;;;;;;1.57;0.97;;;12.10;99.90;;;;;;5056696;28;20385;-81
2024/04/07 04:39:27;;;;;;;0.20;0.20;;;12.10;99.90;;;;;;5049078;28;20032;-81
2024/04/07 04:41:53;;;;;;;0.35;0.35;;;12.00;1.00;;;;;;5055212;28;20391;-81
2024/04/07 04:44:20;;;;;;;0.30;0.30;;;11.90;99.90;;;;;;5053833;28;20032;-82
2024/04/07 04:46:48;;;;;;;0.10;0.10;;;12.00;1.00;;;;;;5050422;28;20100;-81
2024/04/07 04:49:15;;;;;;;0.20;0.20;;;12.00;1.00;;;;;;5063011;28;20112;-81
2024/04/07 04:51:41;;;;;;;0.52;0.52;;;12.00;1.00;;;;;;5053662;28;20025;-81
2024/04/07 04:54:07;;;;;;;0.22;0.22;;;11.90;1.00;;;;;;5064947;28;20029;-81
2024/04/07 04:56:34;;;;;;;0.70;0.70;;;11.90;1.00;;;;;;5062523;28;20024;-81
2024/04/07 04:59:02;;;;;;;0.85;0.85;;;11.90;1.00;;;;;;5058698;28;20449;-81
2024/04/07 05:01:29;;;;;;;0.50;0.40;;;11.90;1.00;;;;;;5055860;28;20032;-81
2024/04/07 05:03:56;;;;;;;0.15;0.15;;;11.90;1.00;;;;;;5072581;28;20033;-80
2024/04/07 05:06:22;;;;;;;0.30;0.30;;;11.90;1.00;;;;;;5053395;28;20029;-81
2024/04/07 05:08:49;;;;;;;9.40;2.17;;;11.90;1.00;;;;;;5053130;28;20355;-80
2024/04/07 05:11:16;;;;;;;0.20;0.20;;;11.90;1.00;;;;;;5055241;28;20357;-80
2024/04/07 05:13:43;;;;;;;0.35;0.35;;;12.00;1.00;;;;;;5063050;28;20455;-80
2024/04/07 05:16:09;;;;;;;0.32;0.30;;;12.00;1.00;;;;;;5060302;28;20044;-80
2024/04/07 05:18:36;;;;;;;0.40;0.40;;;12.00;1.00;;;;;;5053530;28;20501;-80
2024/04/07 05:21:04;;;;;;;0.63;0.63;;;12.10;1.00;;;;;;5056972;28;20029;-81
2024/04/07 05:23:42;;;;;;;0.32;0.32;;;12.20;1.00;;;;;;5056701;28;20052;-85
2024/04/07 05:26:12;;;;;;;0.82;0.82;;;12.30;1.00;;;;;;5054610;28;20028;-84
2024/04/07 05:28:39;;;;;;;0.20;0.20;;;12.30;1.00;;;;;;5039429;28;20458;-84
2024/04/07 05:31:12;;;;;;;0.47;0.45;;;12.40;99.90;;;;;;5050421;28;20430;-85
2024/04/07 05:33:44;;;;;;;0.20;0.15;;;12.60;99.90;;;;;;5058335;28;20071;-84
2024/04/07 05:36:10;;;;;;;0.20;0.20;;;12.80;99.90;;;;;;5055990;28;20057;-84
2024/04/07 05:38:38;;;;;;;0.55;0.32;;;13.10;99.90;;;;;;5053896;28;20029;-84
2024/04/07 05:41:04;;;;;;;0.40;0.40;;;13.40;99.90;;;;;;5055627;28;20032;-84
2024/04/07 05:43:32;;;;;;;0.30;0.30;;;13.50;99.90;;;;;;5051023;28;20043;-85
2024/04/07 05:46:05;;;;;;;0.28;0.28;;;13.70;93.30;;;;;;5058424;28;20465;-84
2024/04/07 05:48:32;;;;;;;0.60;0.60;;;13.90;67.90;;;;;;5057610;28;20028;-85
2024/04/07 05:50:59;;;;;;;0.57;0.52;;;14.00;73.80;;;;;;5065920;28;20017;-83
2024/04/07 05:53:26;;;;;;;1.13;0.50;;;14.10;1.00;;;;;;5068577;28;20032;-86
2024/04/07 05:55:52;;;;;;;0.20;0.20;;;14.10;38.70;;;;;;5058122;28;20158;-85
2024/04/07 05:58:18;;;;;;;0.82;0.82;;;14.00;41.00;;;;;;5052820;28;20033;-85
2024/04/07 06:00:44;;;;;;;0.32;0.30;;;14.40;1.00;;;;;;5071452;28;20342;-85
2024/04/07 06:03:11;;;;;;;0.63;0.63;;;14.80;1.00;;;;;;5058197;28;20037;-86
2024/04/07 06:05:38;;;;;;;0.10;0.10;;;15.20;1.00;;;;;;5053201;28;20052;-85
2024/04/07 06:08:05;;;;;;;0.20;0.20;;;15.40;1.00;;;;;;5060295;28;20036;-85
2024/04/07 06:10:34;;;;;;;0.32;0.30;;;15.50;1.00;;;;;;5064277;28;20025;-83
2024/04/07 06:13:02;;;;;;;1.10;0.88;;;15.80;1.00;;;;;;5061929;28;20024;-85
2024/04/07 06:15:29;;;;;;;0.47;0.38;;;15.80;99.90;;;;;;5058357;28;20037;-84
2024/04/07 06:17:55;;;;;;;0.25;0.25;;;15.40;1.00;;;;;;5047385;28;20044;-88
2024/04/07 06:20:21;;;;;;;0.20;0.20;;;15.20;1.00;;;;;;5054963;28;20053;-85
2024/04/07 06:22:47;;;;;;;0.47;0.35;;;15.20;1.00;;;;;;5062922;28;20037;-86
2024/04/07 06:25:14;;;;;;;0.17;0.17;;;15.20;1.00;;;;;;5036524;28;20053;-85
2024/04/07 06:27:40;;;;;;;5.22;2.30;;;15.10;1.00;;;;;;5049099;28;20773;-85
2024/04/07 06:30:07;;;;;;;0.40;0.40;;;15.40;1.00;;;;;;5054260;28;20032;-82
2024/04/07 07:04:05;;;;;;;0.47;0.47;;;18.60;99.90;;;;;;5061153;28;20880;-84
2024/04/07 07:06:31;;;;;;;14.15;1.05;;;19.50;99.90;;;;;;5056929;28;20379;-85
2024/04/07 07:14:52;;;;;;;0.30;0.30;;;20.30;99.90;;;;;;5019974;23;20347;-83
2024/04/07 07:17:19;;;;;;;1.70;0.43;;;20.40;99.90;;;;;;4930985;29;20040;-85
2024/04/07 07:19:45;;;;;;;0.50;0.50;;;20.20;99.90;;;;;;4933823;29;20123;-88
2024/04/07 07:22:11;;;;;;;4.70;1.95;;;20.00;99.90;;;;;;4930482;29;20470;-86
2024/04/07 07:24:38;;;;;;;3.35;1.48;;;20.00;99.90;;;;;;4929089;29;20137;-86
2024/04/07 07:27:04;;;;;;;0.80;0.80;;;20.10;99.90;;;;;;4933414;29;20028;-85
2024/04/07 07:29:30;;;;;;;5.05;0.90;;;20.40;99.90;;;;;;4927902;28;20052;-86
2024/04/07 07:31:57;;;;;;;1.25;0.32;;;20.30;99.90;;;;;;4939206;29;20055;-84
2024/04/07 07:34:24;;;;;;;4.95;0.95;;;20.20;99.90;;;;;;4926547;29;20041;-86
2024/04/07 07:36:50;;;;;;;5.95;1.27;;;20.10;99.90;;;;;;4934758;29;20032;-88
2024/04/07 07:39:17;;;;;;;1.98;1.05;;;20.10;99.90;;;;;;4928716;29;20051;-86
2024/04/07 07:41:44;;;;;;;1.65;0.88;;;20.40;99.90;;;;;;4931579;29;20032;-87
2024/04/07 07:44:10;;;;;;;0.60;0.40;;;20.70;99.90;;;;;;4918706;29;20044;-88
2024/04/07 07:46:36;;;;;;;0.55;0.55;;;20.80;99.90;;;;;;4939587;29;20035;-90
2024/04/07 07:49:05;;;;;;;1.83;0.93;;;20.70;99.90;;;;;;4921955;29;20048;-87
2024/04/07 07:51:32;;;;;;;1.65;1.00;;;20.50;99.90;;;;;;4926390;29;20033;-86
2024/04/07 07:53:58;;;;;;;1.35;0.85;;;20.30;99.90;;;;;;4924768;29;20036;-86
2024/04/07 07:56:25;;;;;;;1.70;1.60;;;20.30;99.90;;;;;;4924700;29;20376;-86
2024/04/07 07:58:51;;;;;;;0.63;0.60;;;20.30;99.90;;;;;;4924912;29;20032;-86
2024/04/07 08:01:17;;;;;;;1.13;0.90;;;20.40;99.90;;;;;;4927332;29;20047;-87
2024/04/07 08:03:43;;;;;;;0.30;0.30;;;20.90;99.90;;;;;;4923468;29;20032;-88
2024/04/07 08:06:09;;;;;;;0.45;0.45;;;21.30;99.90;;;;;;4932790;29;20028;-83
2024/04/07 08:08:35;;;;;;;0.60;0.30;;;21.10;99.90;;;;;;4936401;29;20037;-86
2024/04/07 08:11:02;;;;;;;1.98;1.10;;;21.00;99.90;;;;;;4932014;29;20066;-86
2024/04/07 08:13:28;;;;;;;4.20;1.20;;;20.90;99.90;;;;;;4925754;29;20032;-87
2024/04/07 08:15:54;;;;;;;0.30;0.30;;;21.00;99.90;;;;;;4916906;29;20048;-87
2024/04/07 08:18:20;;;;;;;5.38;1.55;;;21.20;99.90;;;;;;4930997;29;20035;-87
2024/04/07 08:20:46;;;;;;;0.47;0.47;;;21.40;99.90;;;;;;4935033;29;20178;-87
2024/04/07 08:23:15;;;;;;;0.82;0.80;;;21.80;99.90;;;;;;4930455;29;20036;-88
2024/04/07 08:25:42;;;;;;;0.40;0.40;;;22.20;99.90;;;;;;4931012;29;20431;-90
2024/04/07 08:28:08;;;;;;;0.40;0.40;;;22.20;99.90;;;;;;4927121;29;20054;-85
2024/04/07 08:30:34;;;;;;;3.83;1.58;;;22.60;99.90;;;;;;4931505;29;20032;-86
2024/04/07 08:33:00;;;;;;;8.98;2.10;;;22.90;99.90;;;;;;4901495;29;20043;-87
2024/04/07 08:35:27;;;;;;;3.85;0.95;;;23.30;99.90;;;;;;4930983;29;20973;-89
2024/04/07 08:37:53;;;;;;;7.18;1.83;;;23.20;99.90;;;;;;4918409;29;20043;-88
2024/04/07 08:40:20;;;;;;;0.20;0.20;;;22.80;99.90;;;;;;4931135;29;20039;-88
2024/04/07 08:42:46;;;;;;;0.60;0.57;;;22.80;99.90;;;;;;4928986;29;20059;-89
2024/04/07 08:45:17;;;;;;;0.57;0.47;;;22.90;99.90;;;;;;4913515;29;20126;-85
2024/04/07 08:47:44;;;;;;;0.82;0.50;;;23.00;99.90;;;;;;4931921;29;20043;-82
2024/04/07 08:50:11;;;;;;;0.40;0.30;;;22.80;99.90;;;;;;4926808;29;20051;-84
2024/04/07 08:52:38;;;;;;;0.20;0.20;;;22.90;99.90;;;;;;4913327;29;20048;-86
2024/04/07 08:55:05;;;;;;;3.30;0.68;;;22.90;99.90;;;;;;4929851;29;20467;-85
2024/04/07 08:57:31;;;;;;;0.22;0.22;;;22.80;99.90;;;;;;4911263;29;20035;-86
2024/04/07 08:59:59;;;;;;;3.45;0.40;;;22.90;99.90;;;;;;4931274;29;20036;-86
2024/04/07 09:02:30;;;;;;;1.05;0.95;;;23.70;99.90;;;;;;4925912;29;20062;-88
2024/04/07 09:04:57;;;;;;;4.22;0.57;;;23.30;98.60;;;;;;4930008;29;20027;-84
2024/04/07 09:07:24;;;;;;;0.30;0.30;;;23.20;98.80;;;;;;4932168;29;20040;-85
2024/04/07 09:09:50;;;;;;;1.17;0.90;;;23.50;99.90;;;;;;4900344;29;20063;-85
2024/04/07 09:12:16;;;;;;;0.40;0.35;;;24.30;98.40;;;;;;4911376;29;20056;-86
2024/04/07 09:14:47;;;;;;;0.20;0.20;;;24.10;94.60;;;;;;4912308;29;20495;-87
2024/04/07 09:17:14;;;;;;;0.20;0.20;;;23.40;97.20;;;;;;4914932;29;20032;-83
2024/04/07 09:19:40;;;;;;;0.38;0.32;;;23.10;97.10;;;;;;4916138;29;20035;-86
2024/04/07 09:22:07;;;;;;;0.40;0.40;;;23.10;98.40;;;;;;4926722;29;20099;-92
2024/04/07 09:24:35;;;;;;;1.65;0.90;;;23.30;97.30;;;;;;4911849;29;20071;-93
2024/04/07 09:27:05;;;;;;;0.75;0.35;;;23.30;96.80;;;;;;4910169;29;20401;-88
2024/04/07 09:29:33;;;;;;;0.35;0.35;;;23.50;96.10;;;;;;4911078;29;20048;-93
2024/04/07 09:32:00;;;;;;;0.20;0.20;;;23.50;95.00;;;;;;4910807;29;20769;-89
2024/04/07 09:34:26;;;;;;;0.35;0.35;;;23.50;97.00;;;;;;4917415;29;20032;-92
2024/04/07 09:36:53;;;;;;;5.35;1.67;;;23.60;95.60;;;;;;4913107;29;20037;-91
2024/04/07 09:39:20;;;;;;;0.45;0.45;;;23.60;95.10;;;;;;4911908;29;20063;-89
2024/04/07 09:41:47;;;;;;;0.43;0.43;;;23.80;99.20;;;;;;4916588;29;20042;-94
2024/04/07 09:44:20;;;;;;;0.52;0.40;;;23.90;94.70;;;;;;4914548;29;20048;-87
2024/04/07 09:46:46;;;;;;;3.40;1.20;;;23.90;91.90;;;;;;4912322;29;20036;-86
2024/04/07 09:49:13;;;;;;;0.10;0.10;;;23.80;92.20;;;;;;4905106;29;20074;-85
2024/04/07 09:51:44;;;;;;;0.20;0.20;;;24.50;81.90;;;;;;4914644;29;20040;-86
2024/04/07 09:54:23;;;;;;;2.83;0.68;;;25.00;85.00;;;;;;4912172;29;20032;-82
2024/04/07 09:56:50;;;;;;;0.88;0.85;;;24.40;78.70;;;;;;4913229;29;20036;-85
2024/04/07 09:59:16;;;;;;;0.20;0.20;;;24.90;79.80;;;;;;4909202;29;20153;-86
2024/04/07 10:01:43;;;;;;;0.93;0.85;;;24.90;74.10;;;;;;4919063;29;20044;-84
2024/04/07 10:04:10;;;;;;;0.55;0.55;;;24.80;74.10;;;;;;4910267;29;20036;-86
2024/04/07 10:06:37;;;;;;;0.30;0.30;;;25.30;77.50;;;;;;4906714;29;20047;-86
2024/04/07 10:09:04;;;;;;;2.28;0.50;;;25.20;78.50;;;;;;4906100;29;20041;-85
2024/04/07 10:11:30;;;;;;;1.77;0.98;;;25.00;71.90;;;;;;4927090;29;20044;-87
2024/04/07 10:13:56;;;;;;;3.30;0.90;;;24.00;74.20;;;;;;4936129;29;20060;-87
2024/04/07 10:16:27;;;;;;;0.28;0.28;;;23.60;79.60;;;;;;4953131;28;20039;-83
2024/04/07 10:18:53;;;;;;;0.55;0.55;;;23.60;73.60;;;;;;4954861;28;20055;-86
2024/04/07 10:21:21;;;;;;;0.20;0.20;;;23.80;77.40;;;;;;4937072;29;20050;-86
2024/04/07 10:23:47;;;;;;;0.30;0.30;;;24.30;70.30;;;;;;4943367;28;20454;-84
2024/04/07 10:26:15;;;;;;;6.93;0.75;;;24.60;68.60;;;;;;4937056;29;20043;-84
2024/04/07 10:28:50;;;;;;;0.40;0.40;;;24.70;71.00;;;;;;4921415;29;20042;-85
2024/04/07 10:31:36;;;;;;;1.05;0.25;;;24.90;70.30;;;;;;4922113;29;20054;-86
2024/04/07 10:34:03;;;;;;;0.20;0.20;;;25.10;67.70;;;;;;4927428;29;20403;-86
2024/04/07 10:36:34;;;;;;;0.20;0.20;;;25.20;67.20;;;;;;4916799;29;20047;-86
2024/04/07 10:39:01;;;;;;;0.30;0.30;;;25.40;68.60;;;;;;4912523;29;20139;-86
2024/04/07 10:41:29;;;;;;;0.30;0.30;;;25.10;61.80;;;;;;4911370;29;20036;-87
2024/04/07 10:43:56;;;;;;;0.52;0.40;;;24.90;65.00;;;;;;4911741;29;20047;-87
2024/04/07 10:46:23;;;;;;;2.75;1.38;;;25.20;66.50;;;;;;4931701;29;20042;-86
2024/04/07 10:48:51;;;;;;;2.30;0.40;;;25.40;63.50;;;;;;4932535;29;20394;-87
2024/04/07 10:51:19;;;;;;;0.20;0.20;;;25.60;61.10;;;;;;4917416;29;20047;-85
2024/04/07 10:53:46;;;;;;;0.52;0.52;;;25.60;68.50;;;;;;4929008;29;20050;-88
2024/04/07 10:56:13;;;;;;;0.55;0.55;;;25.50;69.30;;;;;;4923403;29;20036;-85
2024/04/07 10:58:40;;;;;;;0.20;0.20;;;25.60;71.30;;;;;;4928953;29;20378;-89
2024/04/07 11:01:07;;;;;;;1.13;0.55;;;25.40;70.40;;;;;;4929214;29;20054;-82
2024/04/07 11:03:36;;;;;;;0.20;0.20;;;25.10;68.80;;;;;;4912860;29;20663;-87
2024/04/07 11:06:06;;;;;;;0.28;0.28;;;24.90;72.20;;;;;;4916595;29;20581;-88
2024/04/07 11:08:33;;;;;;;0.40;0.40;;;25.00;72.30;;;;;;4903741;29;20462;-84
2024/04/07 11:11:02;;;;;;;0.20;0.20;;;24.90;70.90;;;;;;4938278;29;20032;-89
2024/04/07 11:13:29;;;;;;;0.28;0.28;;;25.20;73.80;;;;;;4916030;29;20055;-87
2024/04/07 11:15:56;;;;;;;0.88;0.30;;;25.30;68.10;;;;;;4912540;29;20039;-89
2024/04/07 11:18:23;;;;;;;1.00;0.52;;;25.30;64.50;;;;;;4914094;29;20029;-91
2024/04/07 11:20:50;;;;;;;1.75;1.10;;;25.40;69.10;;;;;;4912343;29;20040;-80
2024/04/07 11:23:18;;;;;;;0.20;0.20;;;25.40;69.40;;;;;;4925782;29;20046;-84
2024/04/07 11:25:45;;;;;;;0.22;0.22;;;25.40;66.20;;;;;;4909541;29;20483;-84
2024/04/07 11:28:13;;;;;;;0.20;0.20;;;25.20;68.30;;;;;;4901022;29;20047;-84
2024/04/07 11:30:48;;;;;;;0.38;0.38;;;25.10;69.60;;;;;;4911283;29;20044;-88
2024/04/07 11:33:15;;;;;;;1.13;0.75;;;24.90;69.10;;;;;;4928208;29;20406;-84
2024/04/07 11:35:42;;;;;;;0.20;0.20;;;24.80;70.40;;;;;;4915428;29;20055;-83
2024/04/07 11:38:09;;;;;;;0.30;0.30;;;24.90;69.90;;;;;;4912798;29;20058;-86
2024/04/07 11:40:36;;;;;;;0.40;0.40;;;25.30;69.50;;;;;;4928364;29;20046;-86
2024/04/07 11:43:02;;;;;;;0.43;0.30;;;25.50;67.40;;;;;;4934800;29;20039;-85
2024/04/07 11:45:28;;;;;;;1.75;1.05;;;25.60;65.20;;;;;;4931809;29;20491;-84
2024/04/07 11:47:55;;;;;;;0.43;0.43;;;25.50;61.70;;;;;;4918900;29;20027;-83
2024/04/07 11:50:22;;;;;;;0.63;0.63;;;25.30;62.40;;;;;;4929326;29;20064;-85
2024/04/07 11:52:49;;;;;;;0.20;0.20;;;25.30;67.80;;;;;;4921335;29;20070;-86
2024/04/07 11:55:15;;;;;;;0.40;0.40;;;25.10;62.10;;;;;;4930937;29;20039;-84
2024/04/07 11:57:42;;;;;;;0.10;0.10;;;25.20;65.20;;;;;;4932241;29;20043;-85
2024/04/07 12:00:08;;;;;;;0.28;0.28;;;25.30;62.90;;;;;;4925659;29;20374;-85
2024/04/07 12:02:41;;;;;;;3.72;1.17;;;25.60;64.60;;;;;;4931548;29;20035;-85
2024/04/07 12:05:08;;;;;;;0.20;0.20;;;25.70;60.00;;;;;;4931647;29;20035;-85
2024/04/07 12:07:35;;;;;;;0.38;0.35;;;25.60;58.20;;;;;;4928220;29;20044;-82
2024/04/07 12:10:02;;;;;;;0.38;0.32;;;25.50;58.80;;;;;;4927377;29;20043;-80
2024/04/07 12:12:28;;;;;;;0.20;0.20;;;25.30;57.80;;;;;;4916735;28;20040;-88
2024/04/07 12:14:55;;;;;;;0.30;0.30;;;25.30;60.60;;;;;;4930489;29;20052;-84
2024/04/07 12:17:21;;;;;;;0.10;0.10;;;25.40;57.80;;;;;;4933378;29;20032;-86
2024/04/07 12:19:47;;;;;;;0.20;0.20;;;25.60;61.50;;;;;;4919005;29;20511;-84
2024/04/07 12:22:17;;;;;;;0.38;0.38;;;25.50;58.00;;;;;;4933200;29;20075;-86
2024/04/07 12:24:44;;;;;;;0.45;0.45;;;25.30;61.10;;;;;;4931606;29;20048;-88
2024/04/07 12:27:11;;;;;;;0.20;0.20;;;25.40;57.90;;;;;;4933776;29;20043;-85
2024/04/07 12:29:39;;;;;;;0.13;0.13;;;25.60;59.60;;;;;;4916632;29;20036;-84
2024/04/07 12:32:06;;;;;;;0.30;0.30;;;25.70;56.90;;;;;;4912544;29;20066;-85
2024/04/07 12:34:32;;;;;;;0.38;0.30;;;25.70;58.00;;;;;;4929705;29;20036;-85
2024/04/07 12:36:59;;;;;;;0.20;0.20;;;25.70;57.10;;;;;;4934864;29;20386;-84
2024/04/07 12:39:25;;;;;;;0.20;0.20;;;25.60;55.80;;;;;;4934006;29;20038;-86
2024/04/07 12:41:51;;;;;;;0.57;0.52;;;25.40;55.80;;;;;;4936827;29;20031;-85
2024/04/07 12:44:18;;;;;;;4.85;0.35;;;25.40;57.90;;;;;;4933093;29;20055;-85
2024/04/07 12:46:45;;;;;;;0.20;0.20;;;25.30;57.10;;;;;;4916850;29;20040;-85
2024/04/07 12:49:19;;;;;;;0.20;0.20;;;25.50;61.50;;;;;;4933505;29;20043;-84
2024/04/07 12:51:45;;;;;;;0.70;0.45;;;25.60;57.00;;;;;;4915501;29;20047;-84
2024/04/07 12:54:12;;;;;;;0.20;0.20;;;25.40;56.30;;;;;;4932742;29;20501;-85
2024/04/07 12:56:38;;;;;;;0.20;0.20;;;25.60;54.60;;;;;;4918472;29;20044;-83
2024/04/07 12:59:05;;;;;;;0.45;0.45;;;25.50;54.20;;;;;;4943287;29;20040;-84
2024/04/07 13:01:31;;;;;;;0.20;0.20;;;25.60;55.00;;;;;;4926158;29;20028;-85
2024/04/07 13:03:57;;;;;;;0.95;0.47;;;25.60;54.60;;;;;;4929412;29;20390;-84
2024/04/07 13:06:23;;;;;;;0.20;0.20;;;25.50;56.40;;;;;;4935717;29;20043;-87
2024/04/07 13:08:49;;;;;;;1.20;0.47;;;25.50;59.10;;;;;;4914507;29;20047;-86
2024/04/07 13:11:16;;;;;;;0.30;0.30;;;25.40;59.60;;;;;;4934277;29;20038;-84
2024/04/07 13:13:43;;;;;;;0.20;0.20;;;25.70;59.70;;;;;;4913066;29;20060;-87
2024/04/07 13:16:09;;;;;;;1.20;0.57;;;25.80;60.50;;;;;;4933469;29;20028;-84
2024/04/07 13:18:36;;;;;;;0.47;0.43;;;25.80;57.70;;;;;;4931898;29;20034;-87
2024/04/07 13:21:02;;;;;;;0.28;0.28;;;25.80;61.30;;;;;;4912487;29;20055;-85
2024/04/07 13:23:29;;;;;;;0.60;0.60;;;25.70;60.50;;;;;;4931198;29;20051;-85
2024/04/07 13:25:55;;;;;;;1.00;0.95;;;25.40;63.00;;;;;;4917678;29;20050;-83